sensor_id;sensor_type;location;lat;lon;timestamp;temperature;humidity
20416;DHT22;10367;52.202;5.996;2022-09-02T00:01:34;15.60;81.60
20416;DHT22;10367;52.202;5.996;2022-09-02T00:04:06;15.60;81.60
20416;DHT22;10367;52.202;5.996;2022-09-02T00:06:36;15.50;81.80
20416;DHT22;10367;52.202;5.996;2022-09-02T00:09:05;15.40;82.00
20416;DHT22;10367;52.202;5.996;2022-09-02T00:11:36;15.30;82.30
20416;DHT22;10367;52.202;5.996;2022-09-02T00:14:08;15.30;82.50
20416;DHT22;10367;52.202;5.996;2022-09-02T00:16:40;15.20;82.70
20416;DHT22;10367;52.202;5.996;2022-09-02T00:19:19;15.20;83.00
20416;DHT22;10367;52.202;5.996;2022-09-02T00:21:48;15.20;83.20
20416;DHT22;10367;52.202;5.996;2022-09-02T00:24:17;15.20;83.50
20416;DHT22;10367;52.202;5.996;2022-09-02T00:26:46;15.20;83.60
20416;DHT22;10367;52.202;5.996;2022-09-02T00:29:16;15.10;83.70
20416;DHT22;10367;52.202;5.996;2022-09-02T00:31:46;15.00;84.00
20416;DHT22;10367;52.202;5.996;2022-09-02T00:34:15;15.00;84.20
20416;DHT22;10367;52.202;5.996;2022-09-02T00:36:44;15.00;84.10
20416;DHT22;10367;52.202;5.996;2022-09-02T00:39:12;15.00;84.40
20416;DHT22;10367;52.202;5.996;2022-09-02T00:41:42;14.90;84.70
20416;DHT22;10367;52.202;5.996;2022-09-02T00:44:13;14.80;85.70
20416;DHT22;10367;52.202;5.996;2022-09-02T00:46:43;14.80;85.30
20416;DHT22;10367;52.202;5.996;2022-09-02T00:49:16;14.80;85.50
20416;DHT22;10367;52.202;5.996;2022-09-02T00:51:52;14.80;85.50
20416;DHT22;10367;52.202;5.996;2022-09-02T00:54:23;14.70;85.80
20416;DHT22;10367;52.202;5.996;2022-09-02T00:56:54;14.60;86.10
20416;DHT22;10367;52.202;5.996;2022-09-02T00:59:40;14.60;86.50
20416;DHT22;10367;52.202;5.996;2022-09-02T01:02:11;14.50;86.60
20416;DHT22;10367;52.202;5.996;2022-09-02T01:04:41;14.50;87.00
20416;DHT22;10367;52.202;5.996;2022-09-02T01:07:13;14.50;87.30
20416;DHT22;10367;52.202;5.996;2022-09-02T01:09:42;14.50;87.30
20416;DHT22;10367;52.202;5.996;2022-09-02T01:12:11;14.50;87.60
20416;DHT22;10367;52.202;5.996;2022-09-02T01:14:40;14.40;87.90
20416;DHT22;10367;52.202;5.996;2022-09-02T01:17:09;14.30;88.20
20416;DHT22;10367;52.202;5.996;2022-09-02T01:19:43;14.20;88.70
20416;DHT22;10367;52.202;5.996;2022-09-02T01:22:19;14.30;89.00
20416;DHT22;10367;52.202;5.996;2022-09-02T01:24:48;14.30;89.30
20416;DHT22;10367;52.202;5.996;2022-09-02T01:27:19;14.30;89.60
20416;DHT22;10367;52.202;5.996;2022-09-02T01:29:51;14.20;89.90
20416;DHT22;10367;52.202;5.996;2022-09-02T01:32:20;14.10;90.10
20416;DHT22;10367;52.202;5.996;2022-09-02T01:34:50;14.20;90.30
20416;DHT22;10367;52.202;5.996;2022-09-02T01:37:21;14.20;90.50
20416;DHT22;10367;52.202;5.996;2022-09-02T01:39:50;14.20;90.60
20416;DHT22;10367;52.202;5.996;2022-09-02T01:42:19;14.20;90.70
20416;DHT22;10367;52.202;5.996;2022-09-02T01:44:48;14.30;90.80
20416;DHT22;10367;52.202;5.996;2022-09-02T01:47:20;14.30;90.90
20416;DHT22;10367;52.202;5.996;2022-09-02T01:49:50;14.30;91.00
20416;DHT22;10367;52.202;5.996;2022-09-02T01:52:22;14.20;91.10
20416;DHT22;10367;52.202;5.996;2022-09-02T01:54:52;14.20;91.30
20416;DHT22;10367;52.202;5.996;2022-09-02T01:57:21;14.20;91.50
20416;DHT22;10367;52.202;5.996;2022-09-02T01:59:51;14.20;91.80
20416;DHT22;10367;52.202;5.996;2022-09-02T02:02:20;14.10;91.90
20416;DHT22;10367;52.202;5.996;2022-09-02T02:04:49;14.10;92.10
20416;DHT22;10367;52.202;5.996;2022-09-02T02:07:20;14.00;92.40
20416;DHT22;10367;52.202;5.996;2022-09-02T02:09:50;13.90;92.70
20416;DHT22;10367;52.202;5.996;2022-09-02T02:12:19;13.90;92.90
20416;DHT22;10367;52.202;5.996;2022-09-02T02:14:48;13.90;93.10
20416;DHT22;10367;52.202;5.996;2022-09-02T02:17:17;14.00;93.20
20416;DHT22;10367;52.202;5.996;2022-09-02T02:19:45;14.00;93.20
20416;DHT22;10367;52.202;5.996;2022-09-02T02:22:14;14.10;93.20
20416;DHT22;10367;52.202;5.996;2022-09-02T02:24:45;14.10;93.20
20416;DHT22;10367;52.202;5.996;2022-09-02T02:27:13;14.20;93.30
20416;DHT22;10367;52.202;5.996;2022-09-02T02:29:42;14.20;93.40
20416;DHT22;10367;52.202;5.996;2022-09-02T02:32:11;14.30;93.40
20416;DHT22;10367;52.202;5.996;2022-09-02T02:34:39;14.30;93.40
20416;DHT22;10367;52.202;5.996;2022-09-02T02:37:09;14.40;93.40
20416;DHT22;10367;52.202;5.996;2022-09-02T02:39:39;14.40;93.40
20416;DHT22;10367;52.202;5.996;2022-09-02T02:42:10;14.30;93.40
20416;DHT22;10367;52.202;5.996;2022-09-02T02:44:40;14.40;93.50
20416;DHT22;10367;52.202;5.996;2022-09-02T02:47:08;14.40;93.50
20416;DHT22;10367;52.202;5.996;2022-09-02T02:49:38;14.40;93.60
20416;DHT22;10367;52.202;5.996;2022-09-02T02:52:07;14.40;93.70
20416;DHT22;10367;52.202;5.996;2022-09-02T02:54:37;14.50;93.70
20416;DHT22;10367;52.202;5.996;2022-09-02T02:57:07;14.50;93.80
20416;DHT22;10367;52.202;5.996;2022-09-02T02:59:37;14.50;93.80
20416;DHT22;10367;52.202;5.996;2022-09-02T03:02:06;14.50;93.90
20416;DHT22;10367;52.202;5.996;2022-09-02T03:04:36;14.60;94.00
20416;DHT22;10367;52.202;5.996;2022-09-02T03:07:06;14.60;93.90
20416;DHT22;10367;52.202;5.996;2022-09-02T03:09:35;14.60;94.00
20416;DHT22;10367;52.202;5.996;2022-09-02T03:12:04;14.60;94.00
20416;DHT22;10367;52.202;5.996;2022-09-02T03:14:33;14.60;94.10
20416;DHT22;10367;52.202;5.996;2022-09-02T03:17:05;14.60;94.20
20416;DHT22;10367;52.202;5.996;2022-09-02T03:19:33;14.60;94.30
20416;DHT22;10367;52.202;5.996;2022-09-02T03:22:02;14.60;94.40
20416;DHT22;10367;52.202;5.996;2022-09-02T03:24:31;14.50;94.40
20416;DHT22;10367;52.202;5.996;2022-09-02T03:27:00;14.50;94.60
20416;DHT22;10367;52.202;5.996;2022-09-02T03:29:29;14.60;94.60
20416;DHT22;10367;52.202;5.996;2022-09-02T03:31:58;14.50;94.60
20416;DHT22;10367;52.202;5.996;2022-09-02T03:34:31;14.50;94.70
20416;DHT22;10367;52.202;5.996;2022-09-02T03:37:00;14.50;94.80
20416;DHT22;10367;52.202;5.996;2022-09-02T03:39:28;14.60;94.90
20416;DHT22;10367;52.202;5.996;2022-09-02T03:41:57;14.50;94.90
20416;DHT22;10367;52.202;5.996;2022-09-02T03:44:27;14.60;95.00
20416;DHT22;10367;52.202;5.996;2022-09-02T03:46:55;14.60;95.10
20416;DHT22;10367;52.202;5.996;2022-09-02T03:49:24;14.60;95.10
20416;DHT22;10367;52.202;5.996;2022-09-02T03:51:55;14.60;95.10
20416;DHT22;10367;52.202;5.996;2022-09-02T03:54:24;14.60;95.20
20416;DHT22;10367;52.202;5.996;2022-09-02T03:56:52;14.60;95.20
20416;DHT22;10367;52.202;5.996;2022-09-02T03:59:21;14.60;95.20
20416;DHT22;10367;52.202;5.996;2022-09-02T04:01:50;14.60;95.30
20416;DHT22;10367;52.202;5.996;2022-09-02T04:04:19;14.60;95.40
20416;DHT22;10367;52.202;5.996;2022-09-02T04:06:49;14.60;95.40
20416;DHT22;10367;52.202;5.996;2022-09-02T04:09:19;14.60;95.50
20416;DHT22;10367;52.202;5.996;2022-09-02T04:11:48;14.60;95.50
20416;DHT22;10367;52.202;5.996;2022-09-02T04:14:17;14.60;95.60
20416;DHT22;10367;52.202;5.996;2022-09-02T04:16:46;14.70;95.60
20416;DHT22;10367;52.202;5.996;2022-09-02T04:19:14;14.80;95.70
20416;DHT22;10367;52.202;5.996;2022-09-02T04:21:43;14.70;95.60
20416;DHT22;10367;52.202;5.996;2022-09-02T04:24:12;14.70;95.70
20416;DHT22;10367;52.202;5.996;2022-09-02T04:26:42;14.70;95.80
20416;DHT22;10367;52.202;5.996;2022-09-02T04:29:11;14.70;95.80
20416;DHT22;10367;52.202;5.996;2022-09-02T04:31:41;14.70;95.90
20416;DHT22;10367;52.202;5.996;2022-09-02T04:34:09;14.70;95.90
20416;DHT22;10367;52.202;5.996;2022-09-02T04:36:38;14.60;95.90
20416;DHT22;10367;52.202;5.996;2022-09-02T04:39:07;14.60;96.00
20416;DHT22;10367;52.202;5.996;2022-09-02T04:41:37;14.60;96.20
20416;DHT22;10367;52.202;5.996;2022-09-02T04:44:07;14.60;96.60
20416;DHT22;10367;52.202;5.996;2022-09-02T04:46:35;14.60;96.30
20416;DHT22;10367;52.202;5.996;2022-09-02T04:49:04;14.60;96.30
20416;DHT22;10367;52.202;5.996;2022-09-02T04:51:34;14.60;96.40
20416;DHT22;10367;52.202;5.996;2022-09-02T04:54:02;14.70;96.40
20416;DHT22;10367;52.202;5.996;2022-09-02T04:56:31;14.70;96.50
20416;DHT22;10367;52.202;5.996;2022-09-02T04:59:00;14.70;96.60
20416;DHT22;10367;52.202;5.996;2022-09-02T05:01:32;14.70;96.60
20416;DHT22;10367;52.202;5.996;2022-09-02T05:04:04;14.80;96.60
20416;DHT22;10367;52.202;5.996;2022-09-02T05:06:34;14.70;96.60
20416;DHT22;10367;52.202;5.996;2022-09-02T05:09:09;14.80;96.70
20416;DHT22;10367;52.202;5.996;2022-09-02T05:11:38;14.80;96.70
20416;DHT22;10367;52.202;5.996;2022-09-02T05:14:07;14.90;96.70
20416;DHT22;10367;52.202;5.996;2022-09-02T05:16:38;14.90;96.70
20416;DHT22;10367;52.202;5.996;2022-09-02T05:19:08;14.90;96.70
20416;DHT22;10367;52.202;5.996;2022-09-02T05:21:40;15.00;96.70
20416;DHT22;10367;52.202;5.996;2022-09-02T05:24:09;15.00;96.70
20416;DHT22;10367;52.202;5.996;2022-09-02T05:26:38;15.00;96.70
20416;DHT22;10367;52.202;5.996;2022-09-02T05:29:09;15.10;96.70
20416;DHT22;10367;52.202;5.996;2022-09-02T05:31:39;15.10;96.70
20416;DHT22;10367;52.202;5.996;2022-09-02T05:34:08;15.10;96.70
20416;DHT22;10367;52.202;5.996;2022-09-02T05:36:38;15.10;97.10
20416;DHT22;10367;52.202;5.996;2022-09-02T05:39:06;15.20;96.80
20416;DHT22;10367;52.202;5.996;2022-09-02T05:41:35;15.30;96.70
20416;DHT22;10367;52.202;5.996;2022-09-02T05:44:05;15.30;96.70
20416;DHT22;10367;52.202;5.996;2022-09-02T05:46:34;15.30;96.70
20416;DHT22;10367;52.202;5.996;2022-09-02T05:49:05;15.30;96.70
20416;DHT22;10367;52.202;5.996;2022-09-02T05:51:37;15.40;96.70
20416;DHT22;10367;52.202;5.996;2022-09-02T05:54:08;15.40;96.80
20416;DHT22;10367;52.202;5.996;2022-09-02T05:56:38;15.30;96.90
20416;DHT22;10367;52.202;5.996;2022-09-02T05:59:12;15.30;96.90
20416;DHT22;10367;52.202;5.996;2022-09-02T06:01:41;15.30;96.90
20416;DHT22;10367;52.202;5.996;2022-09-02T06:04:12;15.30;97.20
20416;DHT22;10367;52.202;5.996;2022-09-02T06:06:41;15.30;97.00
20416;DHT22;10367;52.202;5.996;2022-09-02T06:09:13;15.30;97.00
20416;DHT22;10367;52.202;5.996;2022-09-02T06:11:43;15.30;97.10
20416;DHT22;10367;52.202;5.996;2022-09-02T06:14:16;15.30;97.10
20416;DHT22;10367;52.202;5.996;2022-09-02T06:16:48;15.40;97.20
20416;DHT22;10367;52.202;5.996;2022-09-02T06:19:19;15.50;97.10
20416;DHT22;10367;52.202;5.996;2022-09-02T06:21:48;15.60;97.10
20416;DHT22;10367;52.202;5.996;2022-09-02T06:24:17;15.70;97.10
20416;DHT22;10367;52.202;5.996;2022-09-02T06:26:46;15.80;97.00
20416;DHT22;10367;52.202;5.996;2022-09-02T06:29:15;16.00;96.90
20416;DHT22;10367;52.202;5.996;2022-09-02T06:31:44;16.10;96.60
20416;DHT22;10367;52.202;5.996;2022-09-02T06:34:16;16.20;96.50
20416;DHT22;10367;52.202;5.996;2022-09-02T06:36:48;16.20;96.60
20416;DHT22;10367;52.202;5.996;2022-09-02T06:39:18;16.20;96.60
20416;DHT22;10367;52.202;5.996;2022-09-02T06:41:48;16.20;96.60
20416;DHT22;10367;52.202;5.996;2022-09-02T06:44:18;16.20;96.60
20416;DHT22;10367;52.202;5.996;2022-09-02T06:46:52;16.20;96.60
20416;DHT22;10367;52.202;5.996;2022-09-02T06:49:23;16.20;96.60
20416;DHT22;10367;52.202;5.996;2022-09-02T06:51:54;16.10;96.70
20416;DHT22;10367;52.202;5.996;2022-09-02T06:54:24;16.20;96.70
20416;DHT22;10367;52.202;5.996;2022-09-02T06:56:53;16.10;96.70
20416;DHT22;10367;52.202;5.996;2022-09-02T06:59:22;16.10;96.70
20416;DHT22;10367;52.202;5.996;2022-09-02T07:01:50;16.20;96.60
20416;DHT22;10367;52.202;5.996;2022-09-02T07:04:20;16.20;96.50
20416;DHT22;10367;52.202;5.996;2022-09-02T07:07:08;16.30;96.50
20416;DHT22;10367;52.202;5.996;2022-09-02T07:09:38;16.50;96.50
20416;DHT22;10367;52.202;5.996;2022-09-02T07:12:07;16.60;96.40
20416;DHT22;10367;52.202;5.996;2022-09-02T07:14:36;16.70;96.30
20416;DHT22;10367;52.202;5.996;2022-09-02T07:17:06;16.90;96.20
20416;DHT22;10367;52.202;5.996;2022-09-02T07:19:35;16.90;96.10
20416;DHT22;10367;52.202;5.996;2022-09-02T07:22:04;17.00;96.00
20416;DHT22;10367;52.202;5.996;2022-09-02T07:24:35;17.00;95.80
20416;DHT22;10367;52.202;5.996;2022-09-02T07:27:04;17.00;95.70
20416;DHT22;10367;52.202;5.996;2022-09-02T07:29:34;17.10;95.60
20416;DHT22;10367;52.202;5.996;2022-09-02T07:32:03;17.10;95.50
20416;DHT22;10367;52.202;5.996;2022-09-02T07:34:32;17.20;95.40
20416;DHT22;10367;52.202;5.996;2022-09-02T07:37:00;17.20;95.40
20416;DHT22;10367;52.202;5.996;2022-09-02T07:39:37;17.20;95.30
20416;DHT22;10367;52.202;5.996;2022-09-02T07:42:08;17.30;95.20
20416;DHT22;10367;52.202;5.996;2022-09-02T07:44:37;17.40;95.10
20416;DHT22;10367;52.202;5.996;2022-09-02T07:47:06;17.50;95.00
20416;DHT22;10367;52.202;5.996;2022-09-02T07:49:35;17.60;94.90
20416;DHT22;10367;52.202;5.996;2022-09-02T07:52:24;17.80;94.50
20416;DHT22;10367;52.202;5.996;2022-09-02T07:54:54;18.10;94.10
20416;DHT22;10367;52.202;5.996;2022-09-02T07:57:23;18.30;93.80
20416;DHT22;10367;52.202;5.996;2022-09-02T07:59:51;18.40;93.50
20416;DHT22;10367;52.202;5.996;2022-09-02T08:02:20;18.40;93.40
20416;DHT22;10367;52.202;5.996;2022-09-02T08:04:49;18.20;93.50
20416;DHT22;10367;52.202;5.996;2022-09-02T08:07:17;18.00;93.60
20416;DHT22;10367;52.202;5.996;2022-09-02T08:09:50;17.80;93.70
20416;DHT22;10367;52.202;5.996;2022-09-02T08:12:20;17.80;93.80
20416;DHT22;10367;52.202;5.996;2022-09-02T08:14:49;17.80;93.90
20416;DHT22;10367;52.202;5.996;2022-09-02T08:17:18;17.70;93.90
20416;DHT22;10367;52.202;5.996;2022-09-02T08:19:46;17.80;94.00
20416;DHT22;10367;52.202;5.996;2022-09-02T08:22:15;18.00;93.70
20416;DHT22;10367;52.202;5.996;2022-09-02T08:24:44;18.20;93.40
20416;DHT22;10367;52.202;5.996;2022-09-02T08:27:12;18.30;93.20
20416;DHT22;10367;52.202;5.996;2022-09-02T08:29:42;18.30;93.20
20416;DHT22;10367;52.202;5.996;2022-09-02T08:32:11;18.30;93.40
20416;DHT22;10367;52.202;5.996;2022-09-02T08:34:40;18.20;93.40
20416;DHT22;10367;52.202;5.996;2022-09-02T08:37:08;18.30;93.60
20416;DHT22;10367;52.202;5.996;2022-09-02T08:39:37;18.50;93.40
20416;DHT22;10367;52.202;5.996;2022-09-02T08:42:11;18.80;93.10
20416;DHT22;10367;52.202;5.996;2022-09-02T08:44:44;19.20;92.70
20416;DHT22;10367;52.202;5.996;2022-09-02T08:47:18;19.60;92.00
20416;DHT22;10367;52.202;5.996;2022-09-02T08:49:51;19.90;91.40
20416;DHT22;10367;52.202;5.996;2022-09-02T08:52:25;20.10;91.20
20416;DHT22;10367;52.202;5.996;2022-09-02T08:54:56;20.30;90.90
20416;DHT22;10367;52.202;5.996;2022-09-02T08:57:25;20.40;90.50
20416;DHT22;10367;52.202;5.996;2022-09-02T08:59:57;20.60;90.50
20416;DHT22;10367;52.202;5.996;2022-09-02T09:02:34;20.80;90.30
20416;DHT22;10367;52.202;5.996;2022-09-02T09:05:21;21.00;90.00
20416;DHT22;10367;52.202;5.996;2022-09-02T09:08:03;21.20;89.30
20416;DHT22;10367;52.202;5.996;2022-09-02T09:10:45;21.30;88.00
20416;DHT22;10367;52.202;5.996;2022-09-02T09:13:46;21.30;87.10
20416;DHT22;10367;52.202;5.996;2022-09-02T09:16:29;21.40;86.10
20416;DHT22;10367;52.202;5.996;2022-09-02T09:19:05;21.60;86.20
20416;DHT22;10367;52.202;5.996;2022-09-02T09:21:37;21.70;85.80
20416;DHT22;10367;52.202;5.996;2022-09-02T09:24:21;21.70;85.30
20416;DHT22;10367;52.202;5.996;2022-09-02T09:26:54;21.80;84.80
20416;DHT22;10367;52.202;5.996;2022-09-02T09:29:22;22.00;85.00
20416;DHT22;10367;52.202;5.996;2022-09-02T09:31:56;22.10;84.90
20416;DHT22;10367;52.202;5.996;2022-09-02T09:34:54;22.20;84.20
20416;DHT22;10367;52.202;5.996;2022-09-02T09:37:28;22.10;84.00
20416;DHT22;10367;52.202;5.996;2022-09-02T09:43:13;22.50;83.70
20416;DHT22;10367;52.202;5.996;2022-09-02T09:45:43;22.60;82.70
20416;DHT22;10367;52.202;5.996;2022-09-02T09:48:24;22.70;83.00
20416;DHT22;10367;52.202;5.996;2022-09-02T09:51:12;22.90;82.80
20416;DHT22;10367;52.202;5.996;2022-09-02T09:53:42;22.90;82.20
20416;DHT22;10367;52.202;5.996;2022-09-02T09:56:29;23.00;82.50
20416;DHT22;10367;52.202;5.996;2022-09-02T09:59:06;23.10;80.90
20416;DHT22;10367;52.202;5.996;2022-09-02T10:01:36;23.30;81.20
20416;DHT22;10367;52.202;5.996;2022-09-02T10:04:08;23.30;80.60
20416;DHT22;10367;52.202;5.996;2022-09-02T10:06:58;23.40;80.70
20416;DHT22;10367;52.202;5.996;2022-09-02T10:09:32;23.50;80.20
20416;DHT22;10367;52.202;5.996;2022-09-02T10:12:03;23.60;79.90
20416;DHT22;10367;52.202;5.996;2022-09-02T10:14:34;23.80;79.50
20416;DHT22;10367;52.202;5.996;2022-09-02T10:17:18;23.90;79.20
20416;DHT22;10367;52.202;5.996;2022-09-02T10:19:54;24.00;78.00
20416;DHT22;10367;52.202;5.996;2022-09-02T10:22:41;24.10;79.10
20416;DHT22;10367;52.202;5.996;2022-09-02T10:25:32;24.20;78.10
20416;DHT22;10367;52.202;5.996;2022-09-02T10:28:09;24.30;78.10
20416;DHT22;10367;52.202;5.996;2022-09-02T10:30:45;24.40;77.70
20416;DHT22;10367;52.202;5.996;2022-09-02T10:33:26;24.50;77.50
20416;DHT22;10367;52.202;5.996;2022-09-02T10:36:03;24.70;77.50
20416;DHT22;10367;52.202;5.996;2022-09-02T10:38:40;24.90;76.70
20416;DHT22;10367;52.202;5.996;2022-09-02T10:41:25;25.20;75.90
20416;DHT22;10367;52.202;5.996;2022-09-02T10:44:25;25.10;74.70
20416;DHT22;10367;52.202;5.996;2022-09-02T10:47:00;25.20;74.50
20416;DHT22;10367;52.202;5.996;2022-09-02T10:52:34;25.30;72.10
20416;DHT22;10367;52.202;5.996;2022-09-02T10:55:15;25.60;72.30
20416;DHT22;10367;52.202;5.996;2022-09-02T10:57:50;25.60;72.10
20416;DHT22;10367;52.202;5.996;2022-09-02T11:00:20;25.80;72.00
20416;DHT22;10367;52.202;5.996;2022-09-02T11:02:53;26.00;71.60
20416;DHT22;10367;52.202;5.996;2022-09-02T11:05:27;26.20;70.90
20416;DHT22;10367;52.202;5.996;2022-09-02T11:08:02;26.20;70.90
20416;DHT22;10367;52.202;5.996;2022-09-02T11:10:37;26.20;70.60
20416;DHT22;10367;52.202;5.996;2022-09-02T11:13:11;26.10;70.80
20416;DHT22;10367;52.202;5.996;2022-09-02T11:15:46;26.20;70.00
20416;DHT22;10367;52.202;5.996;2022-09-02T11:18:21;26.50;69.90
20416;DHT22;10367;52.202;5.996;2022-09-02T11:20:58;26.60;69.30
20416;DHT22;10367;52.202;5.996;2022-09-02T11:23:36;26.90;69.00
20416;DHT22;10367;52.202;5.996;2022-09-02T11:26:10;26.90;67.70
20416;DHT22;10367;52.202;5.996;2022-09-02T11:28:47;26.90;68.10
20416;DHT22;10367;52.202;5.996;2022-09-02T11:31:21;26.80;67.10
20416;DHT22;10367;52.202;5.996;2022-09-02T11:33:54;26.70;66.80
20416;DHT22;10367;52.202;5.996;2022-09-02T11:36:25;26.60;66.50
20416;DHT22;10367;52.202;5.996;2022-09-02T11:39:05;26.80;66.30
20416;DHT22;10367;52.202;5.996;2022-09-02T11:41:59;27.00;64.80
20416;DHT22;10367;52.202;5.996;2022-09-02T11:44:49;27.40;62.90
20416;DHT22;10367;52.202;5.996;2022-09-02T11:47:43;27.50;60.80
20416;DHT22;10367;52.202;5.996;2022-09-02T11:50:41;27.40;63.10
20416;DHT22;10367;52.202;5.996;2022-09-02T11:53:20;27.70;62.40
20416;DHT22;10367;52.202;5.996;2022-09-02T11:55:59;27.80;63.20
20416;DHT22;10367;52.202;5.996;2022-09-02T11:58:34;27.80;62.90
20416;DHT22;10367;52.202;5.996;2022-09-02T12:01:21;28.10;62.60
20416;DHT22;10367;52.202;5.996;2022-09-02T12:03:55;28.10;62.00
20416;DHT22;10367;52.202;5.996;2022-09-02T12:07:21;27.80;62.10
20416;DHT22;10367;52.202;5.996;2022-09-02T12:09:54;27.80;61.60
20416;DHT22;10367;52.202;5.996;2022-09-02T12:13:04;28.20;61.60
20416;DHT22;10367;52.202;5.996;2022-09-02T12:15:36;27.80;60.40
20416;DHT22;10367;52.202;5.996;2022-09-02T12:18:25;27.40;61.60
20416;DHT22;10367;52.202;5.996;2022-09-02T12:21:09;26.90;61.10
20416;DHT22;10367;52.202;5.996;2022-09-02T12:24:08;27.10;61.30
20416;DHT22;10367;52.202;5.996;2022-09-02T12:29:46;27.90;57.30
20416;DHT22;10367;52.202;5.996;2022-09-02T12:35:53;27.80;58.40
20416;DHT22;10367;52.202;5.996;2022-09-02T12:38:29;27.50;58.10
20416;DHT22;10367;52.202;5.996;2022-09-02T12:41:10;27.30;58.80
20416;DHT22;10367;52.202;5.996;2022-09-02T12:43:59;27.10;58.40
20416;DHT22;10367;52.202;5.996;2022-09-02T12:46:47;27.00;58.80
20416;DHT22;10367;52.202;5.996;2022-09-02T12:49:34;27.10;58.50
20416;DHT22;10367;52.202;5.996;2022-09-02T12:52:08;27.40;58.80
20416;DHT22;10367;52.202;5.996;2022-09-02T12:54:44;27.60;57.90
20416;DHT22;10367;52.202;5.996;2022-09-02T12:57:16;27.70;57.60
20416;DHT22;10367;52.202;5.996;2022-09-02T12:59:46;27.50;57.50
20416;DHT22;10367;52.202;5.996;2022-09-02T13:02:38;27.60;57.50
20416;DHT22;10367;52.202;5.996;2022-09-02T13:05:19;28.00;56.40
20416;DHT22;10367;52.202;5.996;2022-09-02T13:08:21;28.30;56.10
20416;DHT22;10367;52.202;5.996;2022-09-02T13:11:34;28.30;55.20
20416;DHT22;10367;52.202;5.996;2022-09-02T13:17:26;27.50;56.40
20416;DHT22;10367;52.202;5.996;2022-09-02T13:23:36;27.50;54.60
20416;DHT22;10367;52.202;5.996;2022-09-02T13:26:21;26.90;54.70
20416;DHT22;10367;52.202;5.996;2022-09-02T13:29:50;26.90;56.20
20416;DHT22;10367;52.202;5.996;2022-09-02T13:32:24;27.30;53.10
20416;DHT22;10367;52.202;5.996;2022-09-02T13:34:57;27.50;54.00
20416;DHT22;10367;52.202;5.996;2022-09-02T13:37:32;27.80;54.10
20416;DHT22;10367;52.202;5.996;2022-09-02T13:40:05;28.20;53.60
20416;DHT22;10367;52.202;5.996;2022-09-02T13:42:35;28.70;52.90
20416;DHT22;10367;52.202;5.996;2022-09-02T13:45:12;28.70;52.70
20416;DHT22;10367;52.202;5.996;2022-09-02T13:47:42;29.10;52.90
20416;DHT22;10367;52.202;5.996;2022-09-02T13:50:14;29.40;52.50
20416;DHT22;10367;52.202;5.996;2022-09-02T13:52:49;29.40;52.70
20416;DHT22;10367;52.202;5.996;2022-09-02T13:55:45;29.40;52.70
20416;DHT22;10367;52.202;5.996;2022-09-02T13:58:31;29.00;53.30
20416;DHT22;10367;52.202;5.996;2022-09-02T14:01:20;29.10;53.40
20416;DHT22;10367;52.202;5.996;2022-09-02T14:03:51;29.60;51.30
20416;DHT22;10367;52.202;5.996;2022-09-02T14:06:23;29.70;52.70
20416;DHT22;10367;52.202;5.996;2022-09-02T14:08:56;29.70;52.30
20416;DHT22;10367;52.202;5.996;2022-09-02T14:11:27;29.90;52.20
20416;DHT22;10367;52.202;5.996;2022-09-02T14:13:56;29.60;52.60
20416;DHT22;10367;52.202;5.996;2022-09-02T14:16:29;29.20;53.10
20416;DHT22;10367;52.202;5.996;2022-09-02T14:19:08;28.90;53.40
20416;DHT22;10367;52.202;5.996;2022-09-02T14:21:44;28.60;53.70
20416;DHT22;10367;52.202;5.996;2022-09-02T14:27:23;28.10;53.90
20416;DHT22;10367;52.202;5.996;2022-09-02T14:29:54;27.90;54.80
20416;DHT22;10367;52.202;5.996;2022-09-02T14:32:25;27.70;55.10
20416;DHT22;10367;52.202;5.996;2022-09-02T14:35:18;27.70;55.00
20416;DHT22;10367;52.202;5.996;2022-09-02T14:37:49;27.30;55.20
20416;DHT22;10367;52.202;5.996;2022-09-02T14:40:31;27.10;55.30
20416;DHT22;10367;52.202;5.996;2022-09-02T14:43:01;26.90;55.40
20416;DHT22;10367;52.202;5.996;2022-09-02T14:45:32;26.90;55.50
20416;DHT22;10367;52.202;5.996;2022-09-02T14:48:14;26.80;55.30
20416;DHT22;10367;52.202;5.996;2022-09-02T14:50:45;26.70;55.10
20416;DHT22;10367;52.202;5.996;2022-09-02T14:53:19;26.60;55.20
20416;DHT22;10367;52.202;5.996;2022-09-02T14:55:49;26.30;55.30
20416;DHT22;10367;52.202;5.996;2022-09-02T14:58:22;26.10;55.70
20416;DHT22;10367;52.202;5.996;2022-09-02T15:00:54;25.90;55.80
20416;DHT22;10367;52.202;5.996;2022-09-02T15:03:25;25.80;55.90
20416;DHT22;10367;52.202;5.996;2022-09-02T15:05:54;25.60;56.10
20416;DHT22;10367;52.202;5.996;2022-09-02T15:08:22;25.60;56.00
20416;DHT22;10367;52.202;5.996;2022-09-02T15:10:52;25.70;56.10
20416;DHT22;10367;52.202;5.996;2022-09-02T15:13:27;26.00;55.80
20416;DHT22;10367;52.202;5.996;2022-09-02T15:15:56;26.20;55.30
20416;DHT22;10367;52.202;5.996;2022-09-02T15:18:25;26.30;55.30
20416;DHT22;10367;52.202;5.996;2022-09-02T15:20:54;26.20;55.10
20416;DHT22;10367;52.202;5.996;2022-09-02T15:23:24;26.40;55.00
20416;DHT22;10367;52.202;5.996;2022-09-02T15:25:54;26.80;54.50
20416;DHT22;10367;52.202;5.996;2022-09-02T15:28:24;27.20;53.70
20416;DHT22;10367;52.202;5.996;2022-09-02T15:30:56;27.30;53.30
20416;DHT22;10367;52.202;5.996;2022-09-02T15:33:26;27.40;53.50
20416;DHT22;10367;52.202;5.996;2022-09-02T15:36:04;27.60;53.40
20416;DHT22;10367;52.202;5.996;2022-09-02T15:38:32;27.30;53.70
20416;DHT22;10367;52.202;5.996;2022-09-02T15:41:13;27.30;54.00
20416;DHT22;10367;52.202;5.996;2022-09-02T15:43:43;26.90;54.10
20416;DHT22;10367;52.202;5.996;2022-09-02T15:46:20;26.80;54.60
20416;DHT22;10367;52.202;5.996;2022-09-02T15:48:49;26.60;54.40
20416;DHT22;10367;52.202;5.996;2022-09-02T15:51:20;26.30;54.90
20416;DHT22;10367;52.202;5.996;2022-09-02T15:53:53;26.10;55.20
20416;DHT22;10367;52.202;5.996;2022-09-02T15:56:24;26.00;55.20
20416;DHT22;10367;52.202;5.996;2022-09-02T15:58:55;26.00;55.20
20416;DHT22;10367;52.202;5.996;2022-09-02T16:01:26;25.90;55.30
20416;DHT22;10367;52.202;5.996;2022-09-02T16:03:55;25.70;55.20
20416;DHT22;10367;52.202;5.996;2022-09-02T16:06:24;25.60;55.40
20416;DHT22;10367;52.202;5.996;2022-09-02T16:08:53;25.60;55.60
20416;DHT22;10367;52.202;5.996;2022-09-02T16:11:22;25.40;55.60
20416;DHT22;10367;52.202;5.996;2022-09-02T16:13:51;25.30;55.80
20416;DHT22;10367;52.202;5.996;2022-09-02T16:16:22;25.30;55.60
20416;DHT22;10367;52.202;5.996;2022-09-02T16:18:52;25.30;55.60
20416;DHT22;10367;52.202;5.996;2022-09-02T16:21:21;25.40;55.70
20416;DHT22;10367;52.202;5.996;2022-09-02T16:23:51;25.30;55.80
20416;DHT22;10367;52.202;5.996;2022-09-02T16:26:24;25.40;55.90
20416;DHT22;10367;52.202;5.996;2022-09-02T16:28:54;25.40;55.80
20416;DHT22;10367;52.202;5.996;2022-09-02T16:31:26;25.40;56.00